Main page
Satellite images Climate Cyclones Lightning AirportsFAQ Languages Contact Newsletter About
Weather : Europe Africa North America South America Asia Australia-Oceania Others

vientiane-la, Vientiane, Wattay International Airport

48940

latitude: , longitude: Laos, elevation: 17-57N m


METAR: VLVT 101100Z 22004KT 8000 SCT016 BKN200 29/23 Q1003 NOSIG